Terminal Aerodrome Forecast
Issued by NWS

Home | Current Version | Previous Version | Graphics & Text | Print | Product List | Glossary On
Versions: 1 2 3 4 5 6 7 8 9 10 11 12 13 14 15
000
FTUS42 KMHX 231100
TAFOAJ
TAF
KOAJ 231120Z 2312/2412 02007KT P6SM SCT100 OVC200
     FM231400 04010G18KT P6SM VCSH OVC050
     FM231800 04012G18KT 6SM -RA OVC025
     FM240600 03008KT 4SM -RA BR OVC010
      AMD LTD TO CLD VIS AND WIND=

USA.gov is the U.S. government's official web portal to all federal, state and local government web resources and services.